Ocee, Texas
Current Conditions -  °F | °C
As of 6:55 PM on Wednesday 22 Oct 2014 (Local Time) from KPWG Reporting Station
Clear Clear  
Wind Chill: 75°   Ceiling: Unl
Heat Index: 75°   Visibility: 10mi
Dew Point: 55°   Wind: 5mph
Humidity: 50%   Direction: 90°E
Pressure: 30.09"   Gusts: NA
Location:  31.5634°N, 97.4392°W
Report Text: KPWG 222355Z AUTO 09004KT 10SM CLR 24/13 A3009 RMK AO1 10280 20240 52003
Loading
Personal Weather Stations






























Interactive Weather Map
Tropical Storm Tracking
New forecast layout! Learn more

10-Day Weather Forecast

Advertisements
Track Severe Weather on mobile